Sea Dolphin C — V7XL9 — position and weather

sailwx.info

Track history (hours):
 
Tides and Currents Weather Stations Pressure Air Temp Water Temp Dewpoint Dewpoint Depression Visibility Wind Speed Wind Dir Waves Ship Positions

Sea Dolphin C

Last reported at 2015-Jan-28 15:10 UTC. Time now 2015-Jan-28 22:15 UTC.
Position N 51°21' W 003°24'.

Length 181 m; draft 8.5 m.

Type: Cargo ship. MMSI: 538004513.

Date/timePositionNaut miles runAvg speedWind from/ knotsBaromVisibWave heightAir tempDewpointWater temp
2015-Jan-28 15:10N 51°21' W 003°24'610.0
2015-Jan-28 14:33N 51°21' W 003°14'1111.5
2015-Jan-28 13:33N 51°27' W 002°58'10 9.6
2015-Jan-28 12:33N 51°30' W 002°43'1 0.6
2015-Jan-28 11:33N 51°30' W 002°42'0 0.1
2015-Jan-28 10:33N 51°30' W 002°42'0 0.0
2015-Jan-28 09:33N 51°30' W 002°42'0 0.0
2015-Jan-28 08:33N 51°30' W 002°42'0 0.0
2015-Jan-28 07:33N 51°30' W 002°42'0 0.0
2015-Jan-28 06:33N 51°30' W 002°42'0 0.0
2015-Jan-28 05:33N 51°30' W 002°42'0 0.0
2015-Jan-28 04:33N 51°30' W 002°42'0 0.0
2015-Jan-28 03:33N 51°30' W 002°42'0 0.0
2015-Jan-28 02:33N 51°30' W 002°42'0 0.0
2015-Jan-28 01:33N 51°30' W 002°42'0 0.0
2015-Jan-28 00:33N 51°30' W 002°42'0 0.0
2015-Jan-27 23:33N 51°30' W 002°42'0 0.0
2015-Jan-27 22:33N 51°30' W 002°42'0 0.0
2015-Jan-27 21:33N 51°30' W 002°42'0 0.0
2015-Jan-27 20:33N 51°30' W 002°42'0 0.0
2015-Jan-27 19:33N 51°30' W 002°42'0 0.0
2015-Jan-27 18:33N 51°30' W 002°42'0 0.0
2015-Jan-27 17:33N 51°30' W 002°42'0 0.0
2015-Jan-27 16:33N 51°30' W 002°42'0 0.0
2015-Jan-27 15:33N 51°30' W 002°42'0 0.0
2015-Jan-27 14:33N 51°30' W 002°42'0 0.0
2015-Jan-27 13:33N 51°30' W 002°42'0 0.0
2015-Jan-27 12:33N 51°30' W 002°42'0 0.0
2015-Jan-27 11:33N 51°30' W 002°42'0 0.0
2015-Jan-27 10:33N 51°30' W 002°42'0 0.0
2015-Jan-27 09:33N 51°30' W 002°42'0 0.0
2015-Jan-27 08:33N 51°30' W 002°42'0 0.0
2015-Jan-27 07:33N 51°30' W 002°42'0 0.0
2015-Jan-27 06:33N 51°30' W 002°42'0 0.0
2015-Jan-27 05:33N 51°30' W 002°42'0 0.0
2015-Jan-27 04:33N 51°30' W 002°42'0 0.0
2015-Jan-27 03:33N 51°30' W 002°42'0 0.0
2015-Jan-27 02:33N 51°30' W 002°42'0 0.0
2015-Jan-27 01:33N 51°30' W 002°42'0 0.0
2015-Jan-27 00:33N 51°30' W 002°42'0 0.0
2015-Jan-26 23:33N 51°30' W 002°42'0 0.0
2015-Jan-26 22:33N 51°30' W 002°42'0 0.0
2015-Jan-26 21:33N 51°30' W 002°42'0 0.0
2015-Jan-26 20:33N 51°30' W 002°42'0 0.0
2015-Jan-26 19:33N 51°30' W 002°42'0 0.0
2015-Jan-26 18:33N 51°30' W 002°42'0 0.0
2015-Jan-26 17:33N 51°30' W 002°42'0 0.0
2015-Jan-26 16:33N 51°30' W 002°42'0 0.0
2015-Jan-26 15:33N 51°30' W 002°42'0 0.0
2015-Jan-26 14:33N 51°30' W 002°42'0 0.0
2015-Jan-26 13:33N 51°30' W 002°42'0 0.0
2015-Jan-26 12:33N 51°30' W 002°42'0 0.2
2015-Jan-26 11:34N 51°30' W 002°43'0 0.4
2015-Jan-26 10:34N 51°30' W 002°43'6 6.0
2015-Jan-26 09:34N 51°28' W 002°52'10 9.6
2015-Jan-26 08:33N 51°23' W 003°05'1010.2
2015-Jan-26 07:32N 51°21' W 003°21'101 7.1
2015-Jan-25 17:19N 51°57' W 005°53'1114.4
2015-Jan-25 16:31N 52°08' W 005°48'1313.6
2015-Jan-25 15:33N 52°21' W 005°43'1212.4
2015-Jan-25 14:33N 52°33' W 005°38'9810.4
2015-Jan-25 05:05N 54°10' W 005°13'611.0
2015-Jan-25 04:33N 54°16' W 005°13'1110.6
2015-Jan-25 03:33N 54°26' W 005°13'1111.0
2015-Jan-25 02:33N 54°37' W 005°19'1111.3
2015-Jan-25 01:33N 54°44' W 005°35'1110.8
2015-Jan-25 00:33N 54°39' W 005°52'3 2.1
2015-Jan-24 23:15N 54°37' W 005°55'0 0.0
2015-Jan-24 21:21N 54°37' W 005°55'0 0.0
2015-Jan-24 20:21N 54°37' W 005°55'0 0.0
2015-Jan-24 19:27N 54°37' W 005°55'0 0.0
2015-Jan-24 18:33N 54°37' W 005°55'0 0.0
2015-Jan-24 16:12N 54°37' W 005°55'0 0.0
2015-Jan-24 15:33N 54°37' W 005°55'0 0.0
2015-Jan-24 14:33N 54°37' W 005°55'0 0.0
2015-Jan-24 13:30N 54°37' W 005°55'0 0.0
2015-Jan-24 12:33N 54°37' W 005°55'0 0.0
2015-Jan-24 11:21N 54°37' W 005°55'0 0.0
2015-Jan-24 10:30N 54°37' W 005°55'0 0.0
2015-Jan-24 09:33N 54°37' W 005°55'0 0.0
2015-Jan-24 08:15N 54°37' W 005°55'0 0.0
2015-Jan-24 07:27N 54°37' W 005°55'0 0.0
2015-Jan-24 06:15N 54°37' W 005°55'0 0.0
2015-Jan-24 05:30N 54°37' W 005°55'0 0.0
2015-Jan-24 04:21N 54°37' W 005°55'0 0.0
2015-Jan-24 03:30N 54°37' W 005°55'0 0.0
2015-Jan-24 02:30N 54°37' W 005°55'0 0.0
2015-Jan-24 01:21N 54°37' W 005°55'0 0.0
2015-Jan-24 00:15N 54°37' W 005°55'0 0.0
2015-Jan-23 23:33N 54°37' W 005°55'0 0.0
2015-Jan-23 22:33N 54°37' W 005°55'0 0.0
2015-Jan-23 21:33N 54°37' W 005°55'0 0.0
2015-Jan-23 20:33N 54°37' W 005°55'0 0.0
2015-Jan-23 18:15N 54°37' W 005°55'0 0.0
2015-Jan-23 17:30N 54°37' W 005°55'0 0.0
2015-Jan-23 16:33N 54°37' W 005°55'0 0.0
2015-Jan-23 15:30N 54°37' W 005°55'0 0.0
2015-Jan-23 14:33N 54°37' W 005°55'0 0.0
2015-Jan-23 13:30N 54°37' W 005°55'0 0.0
2015-Jan-23 12:27N 54°37' W 005°55'0 0.0
2015-Jan-23 11:33N 54°37' W 005°55'0 0.0
2015-Jan-23 10:21N 54°37' W 005°55'0 0.0
2015-Jan-23 09:33N 54°37' W 005°55'0 0.0
2015-Jan-23 08:33N 54°37' W 005°55'0 0.0
2015-Jan-23 06:33N 54°37' W 005°55'0 0.0
2015-Jan-23 05:27N 54°37' W 005°55'0 0.0
2015-Jan-23 04:33N 54°37' W 005°55'0 0.0
2015-Jan-23 03:30N 54°37' W 005°55'0 0.0
2015-Jan-23 02:33N 54°37' W 005°55'0 0.0
2015-Jan-23 01:27N 54°37' W 005°55'0 0.0
2015-Jan-23 00:30N 54°37' W 005°55'0 0.0
2015-Jan-22 23:33N 54°37' W 005°55'0 0.0
2015-Jan-22 22:27N 54°37' W 005°55'0 0.0
2015-Jan-22 21:27N 54°37' W 005°55'0 0.0
2015-Jan-22 19:27N 54°37' W 005°55'0 0.0
2015-Jan-22 18:30N 54°37' W 005°55'0 0.0
2015-Jan-22 17:09N 54°37' W 005°55'0 0.0
2015-Jan-22 15:09N 54°37' W 005°55'0 0.0
2015-Jan-22 14:30N 54°37' W 005°55'0 0.0
2015-Jan-22 13:24N 54°37' W 005°55'0 0.0
2015-Jan-22 12:30N 54°37' W 005°55'0 0.0
2015-Jan-22 09:24N 54°37' W 005°55'0 0.0
2015-Jan-22 08:33N 54°37' W 005°55'0 0.0
2015-Jan-22 07:24N 54°37' W 005°55'0 0.0
2015-Jan-22 06:33N 54°37' W 005°55'0 0.0
2015-Jan-22 05:33N 54°37' W 005°55'0 0.0
2015-Jan-22 04:24N 54°37' W 005°55'0 0.0
2015-Jan-22 03:33N 54°37' W 005°55'0 0.0
2015-Jan-22 02:27N 54°37' W 005°55'0 0.0
2015-Jan-22 01:27N 54°37' W 005°55'0 0.0
2015-Jan-22 00:30N 54°37' W 005°55'0 0.0
2015-Jan-21 23:30N 54°37' W 005°55'0 0.0
2015-Jan-21 22:45N 54°37' W 005°55'0 0.0
2015-Jan-21 21:30N 54°37' W 005°55'0 0.0
2015-Jan-21 20:33N 54°37' W 005°55'0 0.0
2015-Jan-21 19:18N 54°37' W 005°55'0 0.0
2015-Jan-21 18:33N 54°37' W 005°55'0 0.0
2015-Jan-21 17:33N 54°37' W 005°55'0 0.0
2015-Jan-21 16:24N 54°37' W 005°55'0 0.0
2015-Jan-21 15:33N 54°37' W 005°55'0 0.0
2015-Jan-21 14:33N 54°37' W 005°55'0 0.0
2015-Jan-21 13:27N 54°37' W 005°55'0 0.0
2015-Jan-21 12:33N 54°37' W 005°55'0 0.0
2015-Jan-21 11:33N 54°37' W 005°55'0 0.0
2015-Jan-21 10:30N 54°37' W 005°55'0 0.0
2015-Jan-21 09:33N 54°37' W 005°55'0 0.0
2015-Jan-21 08:27N 54°37' W 005°55'0 0.0
2015-Jan-21 07:27N 54°37' W 005°55'0 0.0
2015-Jan-21 06:21N 54°37' W 005°55'0 0.0
2015-Jan-21 05:30N 54°37' W 005°55'0 0.0
2015-Jan-21 04:30N 54°37' W 005°55'0 0.0
2015-Jan-21 03:33N 54°37' W 005°55'0 0.0
2015-Jan-21 02:33N 54°37' W 005°55'0 0.0
2015-Jan-21 01:33N 54°37' W 005°55'0 0.0
2015-Jan-21 00:33N 54°37' W 005°55'0 0.0
2015-Jan-20 23:33N 54°37' W 005°55'0 0.0
2015-Jan-20 20:33N 54°37' W 005°55'0 0.0
2015-Jan-20 19:33N 54°37' W 005°55'0 0.0
2015-Jan-20 18:33N 54°37' W 005°55'0 0.0
2015-Jan-20 17:33N 54°37' W 005°55'0 0.0
2015-Jan-20 16:33N 54°37' W 005°55'0 0.0
2015-Jan-20 15:30N 54°37' W 005°55'0 0.0
2015-Jan-20 14:33N 54°37' W 005°55'0 0.0
2015-Jan-20 13:30N 54°37' W 005°55'0 0.0
2015-Jan-20 12:27N 54°37' W 005°55'0 0.0
2015-Jan-20 11:33N 54°37' W 005°55'0 0.0
2015-Jan-20 10:27N 54°37' W 005°55'0 0.0
2015-Jan-20 09:33N 54°37' W 005°55'0 0.0
2015-Jan-20 08:30N 54°37' W 005°55'0 0.0
2015-Jan-20 07:30N 54°37' W 005°55'0 0.0
2015-Jan-20 06:33N 54°37' W 005°55'0 0.0
2015-Jan-20 05:33N 54°37' W 005°55'0 0.0
2015-Jan-20 04:18N 54°37' W 005°55'0 0.0
2015-Jan-20 03:24N 54°37' W 005°55'0 0.0
2015-Jan-20 02:30N 54°37' W 005°55'0 0.0
2015-Jan-20 01:33N 54°37' W 005°55'0 0.0
2015-Jan-20 00:33N 54°37' W 005°55'0 0.0
2015-Jan-19 23:33N 54°37' W 005°55'0 0.0
2015-Jan-19 22:33N 54°37' W 005°55'1 1.1
2015-Jan-19 21:32N 54°37' W 005°54'0 0.2
2015-Jan-19 19:26N 54°37' W 005°54'0 0.0
2015-Jan-19 14:17N 54°37' W 005°54'0 0.0
2015-Jan-19 13:29N 54°37' W 005°54'0 0.0
2015-Jan-19 10:17N 54°37' W 005°54'0 0.0
2015-Jan-19 09:26N 54°37' W 005°54'0 0.0
2015-Jan-19 08:32N 54°37' W 005°54'0 0.0
2015-Jan-19 07:26N 54°37' W 005°54'0 0.0
2015-Jan-19 06:26N 54°37' W 005°54'0 0.0
2015-Jan-19 01:18N 54°37' W 005°54'0 0.0
2015-Jan-19 00:33N 54°37' W 005°54'0 0.0
2015-Jan-18 23:24N 54°37' W 005°54'0 0.0
2015-Jan-18 22:33N 54°37' W 005°54'0 0.0
2015-Jan-18 21:17N 54°37' W 005°54'  
Track history (hours):
 
Tides and Currents Weather Stations Pressure Air Temp Water Temp Dewpoint Dewpoint Depression Visibility Wind Speed Wind Dir Waves Ship Positions

Sea Dolphin C

Last reported at 2015-Jan-28 15:10 UTC. Time now 2015-Jan-28 22:15 UTC.
Position N 51°21' W 003°24'.

Length 181 m; draft 8.5 m.

Type: Cargo ship. MMSI: 538004513.

Date/timePositionNaut miles runAvg speedWind from/ knotsBaromVisibWave heightAir tempDewpointWater temp
2015-Jan-28 15:10N 51°21' W 003°24'610.0
2015-Jan-28 14:33N 51°21' W 003°14'1111.5
2015-Jan-28 13:33N 51°27' W 002°58'10 9.6
2015-Jan-28 12:33N 51°30' W 002°43'1 0.6
2015-Jan-28 11:33N 51°30' W 002°42'0 0.1
2015-Jan-28 10:33N 51°30' W 002°42'0 0.0
2015-Jan-28 09:33N 51°30' W 002°42'0 0.0
2015-Jan-28 08:33N 51°30' W 002°42'0 0.0
2015-Jan-28 07:33N 51°30' W 002°42'0 0.0
2015-Jan-28 06:33N 51°30' W 002°42'0 0.0
2015-Jan-28 05:33N 51°30' W 002°42'0 0.0
2015-Jan-28 04:33N 51°30' W 002°42'0 0.0
2015-Jan-28 03:33N 51°30' W 002°42'0 0.0
2015-Jan-28 02:33N 51°30' W 002°42'0 0.0
2015-Jan-28 01:33N 51°30' W 002°42'0 0.0
2015-Jan-28 00:33N 51°30' W 002°42'0 0.0
2015-Jan-27 23:33N 51°30' W 002°42'0 0.0
2015-Jan-27 22:33N 51°30' W 002°42'0 0.0
2015-Jan-27 21:33N 51°30' W 002°42'0 0.0
2015-Jan-27 20:33N 51°30' W 002°42'0 0.0
2015-Jan-27 19:33N 51°30' W 002°42'0 0.0
2015-Jan-27 18:33N 51°30' W 002°42'0 0.0
2015-Jan-27 17:33N 51°30' W 002°42'0 0.0
2015-Jan-27 16:33N 51°30' W 002°42'0 0.0
2015-Jan-27 15:33N 51°30' W 002°42'0 0.0
2015-Jan-27 14:33N 51°30' W 002°42'0 0.0
2015-Jan-27 13:33N 51°30' W 002°42'0 0.0
2015-Jan-27 12:33N 51°30' W 002°42'0 0.0
2015-Jan-27 11:33N 51°30' W 002°42'0 0.0
2015-Jan-27 10:33N 51°30' W 002°42'0 0.0
2015-Jan-27 09:33N 51°30' W 002°42'0 0.0
2015-Jan-27 08:33N 51°30' W 002°42'0 0.0
2015-Jan-27 07:33N 51°30' W 002°42'0 0.0
2015-Jan-27 06:33N 51°30' W 002°42'0 0.0
2015-Jan-27 05:33N 51°30' W 002°42'0 0.0
2015-Jan-27 04:33N 51°30' W 002°42'0 0.0
2015-Jan-27 03:33N 51°30' W 002°42'0 0.0
2015-Jan-27 02:33N 51°30' W 002°42'0 0.0
2015-Jan-27 01:33N 51°30' W 002°42'0 0.0
2015-Jan-27 00:33N 51°30' W 002°42'0 0.0
2015-Jan-26 23:33N 51°30' W 002°42'0 0.0
2015-Jan-26 22:33N 51°30' W 002°42'0 0.0
2015-Jan-26 21:33N 51°30' W 002°42'0 0.0
2015-Jan-26 20:33N 51°30' W 002°42'0 0.0
2015-Jan-26 19:33N 51°30' W 002°42'0 0.0
2015-Jan-26 18:33N 51°30' W 002°42'0 0.0
2015-Jan-26 17:33N 51°30' W 002°42'0 0.0
2015-Jan-26 16:33N 51°30' W 002°42'0 0.0
2015-Jan-26 15:33N 51°30' W 002°42'0 0.0
2015-Jan-26 14:33N 51°30' W 002°42'0 0.0
2015-Jan-26 13:33N 51°30' W 002°42'0 0.0
2015-Jan-26 12:33N 51°30' W 002°42'0 0.2
2015-Jan-26 11:34N 51°30' W 002°43'0 0.4
2015-Jan-26 10:34N 51°30' W 002°43'6 6.0
2015-Jan-26 09:34N 51°28' W 002°52'10 9.6
2015-Jan-26 08:33N 51°23' W 003°05'1010.2
2015-Jan-26 07:32N 51°21' W 003°21'101 7.1
2015-Jan-25 17:19N 51°57' W 005°53'1114.4
2015-Jan-25 16:31N 52°08' W 005°48'1313.6
2015-Jan-25 15:33N 52°21' W 005°43'1212.4
2015-Jan-25 14:33N 52°33' W 005°38'9810.4
2015-Jan-25 05:05N 54°10' W 005°13'611.0
2015-Jan-25 04:33N 54°16' W 005°13'1110.6
2015-Jan-25 03:33N 54°26' W 005°13'1111.0
2015-Jan-25 02:33N 54°37' W 005°19'1111.3
2015-Jan-25 01:33N 54°44' W 005°35'1110.8
2015-Jan-25 00:33N 54°39' W 005°52'3 2.1
2015-Jan-24 23:15N 54°37' W 005°55'0 0.0
2015-Jan-24 21:21N 54°37' W 005°55'0 0.0
2015-Jan-24 20:21N 54°37' W 005°55'0 0.0
2015-Jan-24 19:27N 54°37' W 005°55'0 0.0
2015-Jan-24 18:33N 54°37' W 005°55'0 0.0
2015-Jan-24 16:12N 54°37' W 005°55'0 0.0
2015-Jan-24 15:33N 54°37' W 005°55'0 0.0
2015-Jan-24 14:33N 54°37' W 005°55'0 0.0
2015-Jan-24 13:30N 54°37' W 005°55'0 0.0
2015-Jan-24 12:33N 54°37' W 005°55'0 0.0
2015-Jan-24 11:21N 54°37' W 005°55'0 0.0
2015-Jan-24 10:30N 54°37' W 005°55'0 0.0
2015-Jan-24 09:33N 54°37' W 005°55'0 0.0
2015-Jan-24 08:15N 54°37' W 005°55'0 0.0
2015-Jan-24 07:27N 54°37' W 005°55'0 0.0
2015-Jan-24 06:15N 54°37' W 005°55'0 0.0
2015-Jan-24 05:30N 54°37' W 005°55'0 0.0
2015-Jan-24 04:21N 54°37' W 005°55'0 0.0
2015-Jan-24 03:30N 54°37' W 005°55'0 0.0
2015-Jan-24 02:30N 54°37' W 005°55'0 0.0
2015-Jan-24 01:21N 54°37' W 005°55'0 0.0
2015-Jan-24 00:15N 54°37' W 005°55'0 0.0
2015-Jan-23 23:33N 54°37' W 005°55'0 0.0
2015-Jan-23 22:33N 54°37' W 005°55'0 0.0
2015-Jan-23 21:33N 54°37' W 005°55'0 0.0
2015-Jan-23 20:33N 54°37' W 005°55'0 0.0
2015-Jan-23 18:15N 54°37' W 005°55'0 0.0
2015-Jan-23 17:30N 54°37' W 005°55'0 0.0
2015-Jan-23 16:33N 54°37' W 005°55'0 0.0
2015-Jan-23 15:30N 54°37' W 005°55'0 0.0
2015-Jan-23 14:33N 54°37' W 005°55'0 0.0
2015-Jan-23 13:30N 54°37' W 005°55'0 0.0
2015-Jan-23 12:27N 54°37' W 005°55'0 0.0
2015-Jan-23 11:33N 54°37' W 005°55'0 0.0
2015-Jan-23 10:21N 54°37' W 005°55'0 0.0
2015-Jan-23 09:33N 54°37' W 005°55'0 0.0
2015-Jan-23 08:33N 54°37' W 005°55'0 0.0
2015-Jan-23 06:33N 54°37' W 005°55'0 0.0
2015-Jan-23 05:27N 54°37' W 005°55'0 0.0
2015-Jan-23 04:33N 54°37' W 005°55'0 0.0
2015-Jan-23 03:30N 54°37' W 005°55'0 0.0
2015-Jan-23 02:33N 54°37' W 005°55'0 0.0
2015-Jan-23 01:27N 54°37' W 005°55'0 0.0
2015-Jan-23 00:30N 54°37' W 005°55'0 0.0
2015-Jan-22 23:33N 54°37' W 005°55'0 0.0
2015-Jan-22 22:27N 54°37' W 005°55'0 0.0
2015-Jan-22 21:27N 54°37' W 005°55'0 0.0
2015-Jan-22 19:27N 54°37' W 005°55'0 0.0
2015-Jan-22 18:30N 54°37' W 005°55'0 0.0
2015-Jan-22 17:09N 54°37' W 005°55'0 0.0
2015-Jan-22 15:09N 54°37' W 005°55'0 0.0
2015-Jan-22 14:30N 54°37' W 005°55'0 0.0
2015-Jan-22 13:24N 54°37' W 005°55'0 0.0
2015-Jan-22 12:30N 54°37' W 005°55'0 0.0
2015-Jan-22 09:24N 54°37' W 005°55'0 0.0
2015-Jan-22 08:33N 54°37' W 005°55'0 0.0
2015-Jan-22 07:24N 54°37' W 005°55'0 0.0
2015-Jan-22 06:33N 54°37' W 005°55'0 0.0
2015-Jan-22 05:33N 54°37' W 005°55'0 0.0
2015-Jan-22 04:24N 54°37' W 005°55'0 0.0
2015-Jan-22 03:33N 54°37' W 005°55'0 0.0
2015-Jan-22 02:27N 54°37' W 005°55'0 0.0
2015-Jan-22 01:27N 54°37' W 005°55'0 0.0
2015-Jan-22 00:30N 54°37' W 005°55'0 0.0
2015-Jan-21 23:30N 54°37' W 005°55'0 0.0
2015-Jan-21 22:45N 54°37' W 005°55'0 0.0
2015-Jan-21 21:30N 54°37' W 005°55'0 0.0
2015-Jan-21 20:33N 54°37' W 005°55'0 0.0
2015-Jan-21 19:18N 54°37' W 005°55'0 0.0
2015-Jan-21 18:33N 54°37' W 005°55'0 0.0
2015-Jan-21 17:33N 54°37' W 005°55'0 0.0
2015-Jan-21 16:24N 54°37' W 005°55'0 0.0
2015-Jan-21 15:33N 54°37' W 005°55'0 0.0
2015-Jan-21 14:33N 54°37' W 005°55'0 0.0
2015-Jan-21 13:27N 54°37' W 005°55'0 0.0
2015-Jan-21 12:33N 54°37' W 005°55'0 0.0
2015-Jan-21 11:33N 54°37' W 005°55'0 0.0
2015-Jan-21 10:30N 54°37' W 005°55'0 0.0
2015-Jan-21 09:33N 54°37' W 005°55'0 0.0
2015-Jan-21 08:27N 54°37' W 005°55'0 0.0
2015-Jan-21 07:27N 54°37' W 005°55'0 0.0
2015-Jan-21 06:21N 54°37' W 005°55'0 0.0
2015-Jan-21 05:30N 54°37' W 005°55'0 0.0
2015-Jan-21 04:30N 54°37' W 005°55'0 0.0
2015-Jan-21 03:33N 54°37' W 005°55'0 0.0
2015-Jan-21 02:33N 54°37' W 005°55'0 0.0
2015-Jan-21 01:33N 54°37' W 005°55'0 0.0
2015-Jan-21 00:33N 54°37' W 005°55'0 0.0
2015-Jan-20 23:33N 54°37' W 005°55'0 0.0
2015-Jan-20 20:33N 54°37' W 005°55'0 0.0
2015-Jan-20 19:33N 54°37' W 005°55'0 0.0
2015-Jan-20 18:33N 54°37' W 005°55'0 0.0
2015-Jan-20 17:33N 54°37' W 005°55'0 0.0
2015-Jan-20 16:33N 54°37' W 005°55'0 0.0
2015-Jan-20 15:30N 54°37' W 005°55'0 0.0
2015-Jan-20 14:33N 54°37' W 005°55'0 0.0
2015-Jan-20 13:30N 54°37' W 005°55'0 0.0
2015-Jan-20 12:27N 54°37' W 005°55'0 0.0
2015-Jan-20 11:33N 54°37' W 005°55'0 0.0
2015-Jan-20 10:27N 54°37' W 005°55'0 0.0
2015-Jan-20 09:33N 54°37' W 005°55'0 0.0
2015-Jan-20 08:30N 54°37' W 005°55'0 0.0
2015-Jan-20 07:30N 54°37' W 005°55'0 0.0
2015-Jan-20 06:33N 54°37' W 005°55'0 0.0
2015-Jan-20 05:33N 54°37' W 005°55'0 0.0
2015-Jan-20 04:18N 54°37' W 005°55'0 0.0
2015-Jan-20 03:24N 54°37' W 005°55'0 0.0
2015-Jan-20 02:30N 54°37' W 005°55'0 0.0
2015-Jan-20 01:33N 54°37' W 005°55'0 0.0
2015-Jan-20 00:33N 54°37' W 005°55'0 0.0
2015-Jan-19 23:33N 54°37' W 005°55'0 0.0
2015-Jan-19 22:33N 54°37' W 005°55'1 1.1
2015-Jan-19 21:32N 54°37' W 005°54'0 0.2
2015-Jan-19 19:26N 54°37' W 005°54'0 0.0
2015-Jan-19 14:17N 54°37' W 005°54'0 0.0
2015-Jan-19 13:29N 54°37' W 005°54'0 0.0
2015-Jan-19 10:17N 54°37' W 005°54'0 0.0
2015-Jan-19 09:26N 54°37' W 005°54'0 0.0
2015-Jan-19 08:32N 54°37' W 005°54'0 0.0
2015-Jan-19 07:26N 54°37' W 005°54'0 0.0
2015-Jan-19 06:26N 54°37' W 005°54'0 0.0
2015-Jan-19 01:18N 54°37' W 005°54'0 0.0
2015-Jan-19 00:33N 54°37' W 005°54'0 0.0
2015-Jan-18 23:24N 54°37' W 005°54'0 0.0
2015-Jan-18 22:33N 54°37' W 005°54'0 0.0
2015-Jan-18 21:17N 54°37' W 005°54'  

Dump ship's entire track history